Gaffney, South Carolina
Current Conditions -  °F | °C
As of 10:15 AM on Thursday 23 Oct 2014 (Local Time) from KEHO Reporting Station
Clear Clear  
Wind Chill: 52°   Ceiling: Unl
Heat Index: 52°   Visibility: 10mi
Dew Point: 40°   Wind: 5mph
Humidity: 64%   Direction: 300°WNW
Pressure: 30.11"   Gusts: NA
Location:  35.07°N, 81.65°W
Report Text: KEHO 231415Z AUTO 30004KT 10SM CLR 11/05 A3011 RMK AO2 T01110045
Loading
Personal Weather Stations






























Interactive Weather Map
Tropical Storm Tracking
New forecast layout! Learn more

10-Day Weather Forecast

Advertisements
Track Severe Weather on mobile